sensor_id;sensor_type;location;lat;lon;timestamp;P1;durP1;ratioP1;P2;durP2;ratioP2
47872;SDS011;73966;47.438;18.912;2024-02-04T00:00:53;1.50;;;1.40;;
47872;SDS011;73966;47.438;18.912;2024-02-04T00:03:22;3.87;;;1.75;;
47872;SDS011;73966;47.438;18.912;2024-02-04T00:05:51;3.37;;;1.33;;
47872;SDS011;73966;47.438;18.912;2024-02-04T00:08:23;3.47;;;1.95;;
47872;SDS011;73966;47.438;18.912;2024-02-04T00:10:52;2.60;;;1.33;;
47872;SDS011;73966;47.438;18.912;2024-02-04T00:13:21;2.47;;;1.80;;
47872;SDS011;73966;47.438;18.912;2024-02-04T00:15:53;1.70;;;1.60;;
47872;SDS011;73966;47.438;18.912;2024-02-04T00:18:22;7.18;;;2.83;;
47872;SDS011;73966;47.438;18.912;2024-02-04T00:20:52;1.90;;;1.48;;
47872;SDS011;73966;47.438;18.912;2024-02-04T00:23:21;1.65;;;1.50;;
47872;SDS011;73966;47.438;18.912;2024-02-04T00:25:50;2.28;;;1.60;;
47872;SDS011;73966;47.438;18.912;2024-02-04T00:28:19;2.50;;;1.58;;
47872;SDS011;73966;47.438;18.912;2024-02-04T00:30:48;1.85;;;1.67;;
47872;SDS011;73966;47.438;18.912;2024-02-04T00:33:23;2.00;;;1.80;;
47872;SDS011;73966;47.438;18.912;2024-02-04T00:35:58;1.73;;;1.60;;
47872;SDS011;73966;47.438;18.912;2024-02-04T00:38:27;2.08;;;1.87;;
47872;SDS011;73966;47.438;18.912;2024-02-04T00:41:00;1.67;;;1.58;;
47872;SDS011;73966;47.438;18.912;2024-02-04T00:43:30;2.45;;;2.25;;
47872;SDS011;73966;47.438;18.912;2024-02-04T00:45:59;1.87;;;1.77;;
47872;SDS011;73966;47.438;18.912;2024-02-04T00:48:30;2.15;;;1.60;;
47872;SDS011;73966;47.438;18.912;2024-02-04T00:51:03;1.52;;;1.12;;
47872;SDS011;73966;47.438;18.912;2024-02-04T00:56:02;2.15;;;1.60;;
47872;SDS011;73966;47.438;18.912;2024-02-04T00:58:32;1.08;;;1.08;;
47872;SDS011;73966;47.438;18.912;2024-02-04T01:01:07;3.67;;;2.08;;
47872;SDS011;73966;47.438;18.912;2024-02-04T01:03:41;2.28;;;1.70;;
47872;SDS011;73966;47.438;18.912;2024-02-04T01:06:11;2.08;;;1.48;;
47872;SDS011;73966;47.438;18.912;2024-02-04T01:08:41;1.87;;;1.73;;
47872;SDS011;73966;47.438;18.912;2024-02-04T01:11:10;2.30;;;1.52;;
47872;SDS011;73966;47.438;18.912;2024-02-04T01:13:39;1.87;;;1.42;;
47872;SDS011;73966;47.438;18.912;2024-02-04T01:16:15;1.50;;;1.40;;
47872;SDS011;73966;47.438;18.912;2024-02-04T01:18:45;2.90;;;1.73;;
47872;SDS011;73966;47.438;18.912;2024-02-04T01:21:14;1.48;;;1.37;;
47872;SDS011;73966;47.438;18.912;2024-02-04T01:23:44;1.85;;;1.75;;
47872;SDS011;73966;47.438;18.912;2024-02-04T01:26:13;2.55;;;1.90;;
47872;SDS011;73966;47.438;18.912;2024-02-04T01:28:43;1.92;;;1.50;;
47872;SDS011;73966;47.438;18.912;2024-02-04T01:31:12;2.20;;;1.83;;
47872;SDS011;73966;47.438;18.912;2024-02-04T01:33:42;1.85;;;1.60;;
47872;SDS011;73966;47.438;18.912;2024-02-04T01:36:13;1.80;;;1.70;;
47872;SDS011;73966;47.438;18.912;2024-02-04T01:38:42;2.15;;;1.92;;
47872;SDS011;73966;47.438;18.912;2024-02-04T01:41:11;4.70;;;2.05;;
47872;SDS011;73966;47.438;18.912;2024-02-04T01:43:42;2.75;;;1.90;;
47872;SDS011;73966;47.438;18.912;2024-02-04T01:46:11;3.97;;;1.67;;
47872;SDS011;73966;47.438;18.912;2024-02-04T01:48:41;2.65;;;1.80;;
47872;SDS011;73966;47.438;18.912;2024-02-04T01:51:14;2.87;;;2.10;;
47872;SDS011;73966;47.438;18.912;2024-02-04T01:53:52;2.67;;;2.17;;
47872;SDS011;73966;47.438;18.912;2024-02-04T01:56:27;3.33;;;2.50;;
47872;SDS011;73966;47.438;18.912;2024-02-04T01:58:56;2.92;;;2.50;;
47872;SDS011;73966;47.438;18.912;2024-02-04T02:01:27;2.70;;;2.50;;
47872;SDS011;73966;47.438;18.912;2024-02-04T02:03:57;4.97;;;2.78;;
47872;SDS011;73966;47.438;18.912;2024-02-04T02:06:27;2.15;;;1.95;;
47872;SDS011;73966;47.438;18.912;2024-02-04T02:08:57;3.92;;;2.85;;
47872;SDS011;73966;47.438;18.912;2024-02-04T02:11:32;3.33;;;2.47;;
47872;SDS011;73966;47.438;18.912;2024-02-04T02:14:10;3.25;;;2.40;;
47872;SDS011;73966;47.438;18.912;2024-02-04T02:16:43;3.15;;;2.40;;
47872;SDS011;73966;47.438;18.912;2024-02-04T02:19:18;3.78;;;3.00;;
47872;SDS011;73966;47.438;18.912;2024-02-04T02:22:02;3.35;;;2.70;;
47872;SDS011;73966;47.438;18.912;2024-02-04T02:24:38;4.35;;;2.47;;
47872;SDS011;73966;47.438;18.912;2024-02-04T02:27:08;3.35;;;2.95;;
47872;SDS011;73966;47.438;18.912;2024-02-04T02:29:38;3.85;;;2.90;;
47872;SDS011;73966;47.438;18.912;2024-02-04T02:32:07;3.25;;;2.70;;
47872;SDS011;73966;47.438;18.912;2024-02-04T02:34:37;3.92;;;2.30;;
47872;SDS011;73966;47.438;18.912;2024-02-04T02:37:09;4.93;;;3.10;;
47872;SDS011;73966;47.438;18.912;2024-02-04T02:39:55;4.05;;;3.22;;
47872;SDS011;73966;47.438;18.912;2024-02-04T02:42:28;3.97;;;3.08;;
47872;SDS011;73966;47.438;18.912;2024-02-04T02:44:59;3.28;;;2.95;;
47872;SDS011;73966;47.438;18.912;2024-02-04T02:47:35;3.83;;;2.72;;
47872;SDS011;73966;47.438;18.912;2024-02-04T02:50:10;4.07;;;3.42;;
47872;SDS011;73966;47.438;18.912;2024-02-04T02:52:40;4.30;;;2.80;;
47872;SDS011;73966;47.438;18.912;2024-02-04T02:55:22;3.92;;;2.95;;
47872;SDS011;73966;47.438;18.912;2024-02-04T02:57:51;5.12;;;3.20;;
47872;SDS011;73966;47.438;18.912;2024-02-04T03:00:20;3.42;;;3.05;;
47872;SDS011;73966;47.438;18.912;2024-02-04T03:02:50;3.60;;;3.12;;
47872;SDS011;73966;47.438;18.912;2024-02-04T03:05:21;3.17;;;2.78;;
47872;SDS011;73966;47.438;18.912;2024-02-04T03:07:50;3.62;;;2.85;;
47872;SDS011;73966;47.438;18.912;2024-02-04T03:10:19;3.45;;;3.15;;
47872;SDS011;73966;47.438;18.912;2024-02-04T03:12:50;3.28;;;2.50;;
47872;SDS011;73966;47.438;18.912;2024-02-04T03:15:21;3.40;;;2.58;;
47872;SDS011;73966;47.438;18.912;2024-02-04T03:17:51;6.00;;;3.72;;
47872;SDS011;73966;47.438;18.912;2024-02-04T03:20:20;6.25;;;2.97;;
47872;SDS011;73966;47.438;18.912;2024-02-04T03:22:49;4.12;;;3.25;;
47872;SDS011;73966;47.438;18.912;2024-02-04T03:25:21;4.22;;;3.15;;
47872;SDS011;73966;47.438;18.912;2024-02-04T03:27:54;6.00;;;3.90;;
47872;SDS011;73966;47.438;18.912;2024-02-04T03:30:24;4.40;;;4.00;;
47872;SDS011;73966;47.438;18.912;2024-02-04T03:32:53;4.25;;;3.60;;
47872;SDS011;73966;47.438;18.912;2024-02-04T03:35:23;4.82;;;3.97;;
47872;SDS011;73966;47.438;18.912;2024-02-04T03:37:52;3.95;;;3.45;;
47872;SDS011;73966;47.438;18.912;2024-02-04T03:40:22;4.80;;;3.17;;
47872;SDS011;73966;47.438;18.912;2024-02-04T03:42:52;5.35;;;4.10;;
47872;SDS011;73966;47.438;18.912;2024-02-04T03:45:21;5.72;;;4.37;;
47872;SDS011;73966;47.438;18.912;2024-02-04T03:47:51;4.20;;;3.75;;
47872;SDS011;73966;47.438;18.912;2024-02-04T03:50:21;3.65;;;3.30;;
47872;SDS011;73966;47.438;18.912;2024-02-04T03:52:50;5.05;;;4.07;;
47872;SDS011;73966;47.438;18.912;2024-02-04T03:55:22;4.65;;;3.78;;
47872;SDS011;73966;47.438;18.912;2024-02-04T03:57:54;5.22;;;3.95;;
47872;SDS011;73966;47.438;18.912;2024-02-04T04:00:24;6.47;;;3.35;;
47872;SDS011;73966;47.438;18.912;2024-02-04T04:02:54;3.80;;;3.35;;
47872;SDS011;73966;47.438;18.912;2024-02-04T04:05:23;4.05;;;3.65;;
47872;SDS011;73966;47.438;18.912;2024-02-04T04:07:54;5.28;;;3.92;;
47872;SDS011;73966;47.438;18.912;2024-02-04T04:10:25;4.05;;;3.50;;
47872;SDS011;73966;47.438;18.912;2024-02-04T04:12:54;4.28;;;3.42;;
47872;SDS011;73966;47.438;18.912;2024-02-04T04:15:24;5.68;;;3.78;;
47872;SDS011;73966;47.438;18.912;2024-02-04T04:17:53;8.38;;;3.83;;
47872;SDS011;73966;47.438;18.912;2024-02-04T04:20:24;4.85;;;3.83;;
47872;SDS011;73966;47.438;18.912;2024-02-04T04:22:54;5.32;;;4.15;;
47872;SDS011;73966;47.438;18.912;2024-02-04T04:25:24;7.60;;;4.32;;
47872;SDS011;73966;47.438;18.912;2024-02-04T04:27:53;5.15;;;4.25;;
47872;SDS011;73966;47.438;18.912;2024-02-04T04:30:24;5.65;;;4.53;;
47872;SDS011;73966;47.438;18.912;2024-02-04T04:32:54;4.65;;;3.95;;
47872;SDS011;73966;47.438;18.912;2024-02-04T04:35:23;5.05;;;4.22;;
47872;SDS011;73966;47.438;18.912;2024-02-04T04:37:58;4.43;;;3.80;;
47872;SDS011;73966;47.438;18.912;2024-02-04T04:40:31;5.05;;;4.03;;
47872;SDS011;73966;47.438;18.912;2024-02-04T04:43:00;5.75;;;4.32;;
47872;SDS011;73966;47.438;18.912;2024-02-04T04:45:29;5.75;;;4.78;;
47872;SDS011;73966;47.438;18.912;2024-02-04T04:47:59;6.65;;;4.80;;
47872;SDS011;73966;47.438;18.912;2024-02-04T04:50:28;4.75;;;4.12;;
47872;SDS011;73966;47.438;18.912;2024-02-04T04:52:57;6.43;;;4.47;;
47872;SDS011;73966;47.438;18.912;2024-02-04T04:55:31;5.53;;;4.78;;
47872;SDS011;73966;47.438;18.912;2024-02-04T04:58:09;4.75;;;4.10;;
47872;SDS011;73966;47.438;18.912;2024-02-04T05:00:38;4.25;;;3.85;;
47872;SDS011;73966;47.438;18.912;2024-02-04T05:03:08;4.90;;;3.72;;
47872;SDS011;73966;47.438;18.912;2024-02-04T05:05:37;5.37;;;4.85;;
47872;SDS011;73966;47.438;18.912;2024-02-04T05:08:07;6.22;;;4.43;;
47872;SDS011;73966;47.438;18.912;2024-02-04T05:10:37;5.28;;;4.30;;
47872;SDS011;73966;47.438;18.912;2024-02-04T05:13:07;4.68;;;4.15;;
47872;SDS011;73966;47.438;18.912;2024-02-04T05:15:36;4.93;;;4.05;;
47872;SDS011;73966;47.438;18.912;2024-02-04T05:18:05;4.78;;;4.28;;
47872;SDS011;73966;47.438;18.912;2024-02-04T05:20:35;5.30;;;4.43;;
47872;SDS011;73966;47.438;18.912;2024-02-04T05:23:08;5.45;;;4.35;;
47872;SDS011;73966;47.438;18.912;2024-02-04T05:25:39;4.78;;;4.28;;
47872;SDS011;73966;47.438;18.912;2024-02-04T05:28:08;8.15;;;4.60;;
47872;SDS011;73966;47.438;18.912;2024-02-04T05:30:37;4.80;;;4.30;;
47872;SDS011;73966;47.438;18.912;2024-02-04T05:33:07;4.60;;;4.18;;
47872;SDS011;73966;47.438;18.912;2024-02-04T05:35:36;4.55;;;3.85;;
47872;SDS011;73966;47.438;18.912;2024-02-04T05:38:06;5.45;;;4.75;;
47872;SDS011;73966;47.438;18.912;2024-02-04T05:40:39;5.22;;;4.72;;
47872;SDS011;73966;47.438;18.912;2024-02-04T05:43:09;4.95;;;4.37;;
47872;SDS011;73966;47.438;18.912;2024-02-04T05:45:40;4.80;;;4.25;;
47872;SDS011;73966;47.438;18.912;2024-02-04T05:48:10;5.25;;;3.92;;
47872;SDS011;73966;47.438;18.912;2024-02-04T05:50:39;4.82;;;4.05;;
47872;SDS011;73966;47.438;18.912;2024-02-04T05:53:10;4.75;;;4.20;;
47872;SDS011;73966;47.438;18.912;2024-02-04T05:55:40;5.57;;;4.53;;
47872;SDS011;73966;47.438;18.912;2024-02-04T05:58:09;4.53;;;4.10;;
47872;SDS011;73966;47.438;18.912;2024-02-04T06:00:41;8.30;;;4.78;;
47872;SDS011;73966;47.438;18.912;2024-02-04T06:03:10;6.62;;;4.47;;
47872;SDS011;73966;47.438;18.912;2024-02-04T06:05:40;5.93;;;4.18;;
47872;SDS011;73966;47.438;18.912;2024-02-04T06:08:10;6.97;;;5.25;;
47872;SDS011;73966;47.438;18.912;2024-02-04T06:10:44;6.30;;;4.28;;
47872;SDS011;73966;47.438;18.912;2024-02-04T06:13:13;4.37;;;3.60;;
47872;SDS011;73966;47.438;18.912;2024-02-04T06:15:43;4.75;;;4.10;;
47872;SDS011;73966;47.438;18.912;2024-02-04T06:18:19;4.78;;;3.33;;
47872;SDS011;73966;47.438;18.912;2024-02-04T06:20:54;4.20;;;3.72;;
47872;SDS011;73966;47.438;18.912;2024-02-04T06:23:24;4.75;;;3.87;;
47872;SDS011;73966;47.438;18.912;2024-02-04T06:25:54;6.40;;;3.50;;
47872;SDS011;73966;47.438;18.912;2024-02-04T06:28:28;4.07;;;3.67;;
47872;SDS011;73966;47.438;18.912;2024-02-04T06:30:58;3.85;;;3.40;;
47872;SDS011;73966;47.438;18.912;2024-02-04T06:33:27;3.83;;;3.42;;
47872;SDS011;73966;47.438;18.912;2024-02-04T06:35:59;3.83;;;3.20;;
47872;SDS011;73966;47.438;18.912;2024-02-04T06:38:29;3.87;;;3.20;;
47872;SDS011;73966;47.438;18.912;2024-02-04T06:41:00;3.25;;;2.95;;
47872;SDS011;73966;47.438;18.912;2024-02-04T06:43:36;3.33;;;3.03;;
47872;SDS011;73966;47.438;18.912;2024-02-04T06:46:05;4.87;;;3.90;;
47872;SDS011;73966;47.438;18.912;2024-02-04T06:48:35;3.65;;;3.35;;
47872;SDS011;73966;47.438;18.912;2024-02-04T06:51:05;2.87;;;2.67;;
47872;SDS011;73966;47.438;18.912;2024-02-04T06:53:35;3.40;;;2.75;;
47872;SDS011;73966;47.438;18.912;2024-02-04T06:56:05;2.72;;;2.40;;
47872;SDS011;73966;47.438;18.912;2024-02-04T06:58:37;3.47;;;2.37;;
47872;SDS011;73966;47.438;18.912;2024-02-04T07:01:06;2.90;;;2.65;;
47872;SDS011;73966;47.438;18.912;2024-02-04T07:03:36;3.65;;;2.58;;
47872;SDS011;73966;47.438;18.912;2024-02-04T07:06:05;2.90;;;2.70;;
47872;SDS011;73966;47.438;18.912;2024-02-04T07:08:35;3.60;;;2.53;;
47872;SDS011;73966;47.438;18.912;2024-02-04T07:11:08;3.15;;;2.42;;
47872;SDS011;73966;47.438;18.912;2024-02-04T07:13:38;3.28;;;2.65;;
47872;SDS011;73966;47.438;18.912;2024-02-04T07:16:07;3.17;;;2.87;;
47872;SDS011;73966;47.438;18.912;2024-02-04T07:18:36;2.85;;;2.60;;
47872;SDS011;73966;47.438;18.912;2024-02-04T07:21:05;2.33;;;2.12;;
47872;SDS011;73966;47.438;18.912;2024-02-04T07:23:35;2.60;;;2.40;;
47872;SDS011;73966;47.438;18.912;2024-02-04T07:26:04;2.55;;;2.35;;
47872;SDS011;73966;47.438;18.912;2024-02-04T07:28:34;2.22;;;2.03;;
47872;SDS011;73966;47.438;18.912;2024-02-04T07:31:03;3.00;;;2.35;;
47872;SDS011;73966;47.438;18.912;2024-02-04T07:33:33;2.97;;;2.33;;
47872;SDS011;73966;47.438;18.912;2024-02-04T07:36:02;3.78;;;2.45;;
47872;SDS011;73966;47.438;18.912;2024-02-04T07:38:32;2.58;;;2.17;;
47872;SDS011;73966;47.438;18.912;2024-02-04T07:41:06;3.30;;;2.50;;
47872;SDS011;73966;47.438;18.912;2024-02-04T07:43:37;2.65;;;2.40;;
47872;SDS011;73966;47.438;18.912;2024-02-04T07:46:07;4.53;;;2.47;;
47872;SDS011;73966;47.438;18.912;2024-02-04T07:48:39;2.30;;;2.05;;
47872;SDS011;73966;47.438;18.912;2024-02-04T07:51:08;3.15;;;2.20;;
47872;SDS011;73966;47.438;18.912;2024-02-04T07:53:37;3.37;;;2.40;;
47872;SDS011;73966;47.438;18.912;2024-02-04T07:56:07;3.33;;;2.28;;
47872;SDS011;73966;47.438;18.912;2024-02-04T07:58:39;2.78;;;1.77;;
47872;SDS011;73966;47.438;18.912;2024-02-04T08:01:09;2.00;;;1.90;;
47872;SDS011;73966;47.438;18.912;2024-02-04T08:03:39;6.55;;;2.12;;
47872;SDS011;73966;47.438;18.912;2024-02-04T08:06:08;2.87;;;2.30;;
47872;SDS011;73966;47.438;18.912;2024-02-04T08:08:37;3.42;;;2.30;;
47872;SDS011;73966;47.438;18.912;2024-02-04T08:11:06;2.58;;;2.37;;
47872;SDS011;73966;47.438;18.912;2024-02-04T08:13:35;2.87;;;2.17;;
47872;SDS011;73966;47.438;18.912;2024-02-04T08:16:06;3.33;;;2.72;;
47872;SDS011;73966;47.438;18.912;2024-02-04T08:18:36;4.28;;;2.67;;
47872;SDS011;73966;47.438;18.912;2024-02-04T08:21:05;2.87;;;2.58;;
47872;SDS011;73966;47.438;18.912;2024-02-04T08:23:34;2.35;;;1.98;;
47872;SDS011;73966;47.438;18.912;2024-02-04T08:26:04;2.70;;;2.22;;
47872;SDS011;73966;47.438;18.912;2024-02-04T08:28:33;2.28;;;2.00;;
47872;SDS011;73966;47.438;18.912;2024-02-04T08:31:01;3.15;;;2.55;;
47872;SDS011;73966;47.438;18.912;2024-02-04T08:33:32;2.20;;;1.85;;
47872;SDS011;73966;47.438;18.912;2024-02-04T08:36:02;2.20;;;1.70;;
47872;SDS011;73966;47.438;18.912;2024-02-04T08:38:33;2.67;;;1.98;;
47872;SDS011;73966;47.438;18.912;2024-02-04T08:41:02;2.47;;;2.17;;
47872;SDS011;73966;47.438;18.912;2024-02-04T08:43:31;2.70;;;1.80;;
47872;SDS011;73966;47.438;18.912;2024-02-04T08:46:00;1.85;;;1.70;;
47872;SDS011;73966;47.438;18.912;2024-02-04T08:48:41;2.58;;;2.00;;
47872;SDS011;73966;47.438;18.912;2024-02-04T08:51:11;2.50;;;1.98;;
47872;SDS011;73966;47.438;18.912;2024-02-04T08:53:40;2.08;;;1.80;;
47872;SDS011;73966;47.438;18.912;2024-02-04T08:56:09;2.10;;;1.70;;
47872;SDS011;73966;47.438;18.912;2024-02-04T08:58:39;2.37;;;1.85;;
47872;SDS011;73966;47.438;18.912;2024-02-04T09:01:08;2.47;;;2.05;;
47872;SDS011;73966;47.438;18.912;2024-02-04T09:03:38;2.35;;;2.00;;
47872;SDS011;73966;47.438;18.912;2024-02-04T09:06:08;2.22;;;1.70;;
47872;SDS011;73966;47.438;18.912;2024-02-04T09:08:38;2.20;;;1.90;;
47872;SDS011;73966;47.438;18.912;2024-02-04T09:11:07;2.75;;;1.87;;
47872;SDS011;73966;47.438;18.912;2024-02-04T09:13:36;1.90;;;1.77;;
47872;SDS011;73966;47.438;18.912;2024-02-04T09:16:08;1.93;;;1.73;;
47872;SDS011;73966;47.438;18.912;2024-02-04T09:18:37;1.67;;;1.50;;
47872;SDS011;73966;47.438;18.912;2024-02-04T09:21:07;3.15;;;1.50;;
47872;SDS011;73966;47.438;18.912;2024-02-04T09:23:37;1.98;;;1.58;;
47872;SDS011;73966;47.438;18.912;2024-02-04T09:26:07;2.30;;;1.65;;
47872;SDS011;73966;47.438;18.912;2024-02-04T09:28:36;2.10;;;1.90;;
47872;SDS011;73966;47.438;18.912;2024-02-04T09:31:07;1.55;;;1.45;;
47872;SDS011;73966;47.438;18.912;2024-02-04T09:33:37;3.40;;;1.60;;
47872;SDS011;73966;47.438;18.912;2024-02-04T09:36:10;2.83;;;1.90;;
47872;SDS011;73966;47.438;18.912;2024-02-04T09:38:39;1.70;;;1.60;;
47872;SDS011;73966;47.438;18.912;2024-02-04T09:41:12;2.78;;;1.85;;
47872;SDS011;73966;47.438;18.912;2024-02-04T09:43:42;2.00;;;1.80;;
47872;SDS011;73966;47.438;18.912;2024-02-04T09:46:13;2.62;;;1.73;;
47872;SDS011;73966;47.438;18.912;2024-02-04T09:48:42;3.03;;;1.73;;
47872;SDS011;73966;47.438;18.912;2024-02-04T09:51:16;1.98;;;1.77;;
47872;SDS011;73966;47.438;18.912;2024-02-04T09:53:45;1.85;;;1.67;;
47872;SDS011;73966;47.438;18.912;2024-02-04T09:56:21;2.12;;;1.67;;
47872;SDS011;73966;47.438;18.912;2024-02-04T09:58:54;2.20;;;1.70;;
47872;SDS011;73966;47.438;18.912;2024-02-04T10:01:24;1.98;;;1.50;;
47872;SDS011;73966;47.438;18.912;2024-02-04T10:03:56;2.35;;;1.77;;
47872;SDS011;73966;47.438;18.912;2024-02-04T10:06:27;2.75;;;1.77;;
47872;SDS011;73966;47.438;18.912;2024-02-04T10:08:57;2.87;;;1.40;;
47872;SDS011;73966;47.438;18.912;2024-02-04T10:11:28;3.45;;;1.90;;
47872;SDS011;73966;47.438;18.912;2024-02-04T10:13:57;1.80;;;1.70;;
47872;SDS011;73966;47.438;18.912;2024-02-04T10:16:27;2.45;;;1.70;;
47872;SDS011;73966;47.438;18.912;2024-02-04T10:19:03;1.87;;;1.70;;
47872;SDS011;73966;47.438;18.912;2024-02-04T10:21:34;1.60;;;1.50;;
47872;SDS011;73966;47.438;18.912;2024-02-04T10:24:05;2.17;;;1.40;;
47872;SDS011;73966;47.438;18.912;2024-02-04T10:26:34;1.45;;;1.33;;
47872;SDS011;73966;47.438;18.912;2024-02-04T10:29:06;1.48;;;1.35;;
47872;SDS011;73966;47.438;18.912;2024-02-04T10:31:35;3.15;;;1.70;;
47872;SDS011;73966;47.438;18.912;2024-02-04T10:34:05;1.35;;;1.25;;
47872;SDS011;73966;47.438;18.912;2024-02-04T10:36:36;2.50;;;1.70;;
47872;SDS011;73966;47.438;18.912;2024-02-04T10:39:06;1.52;;;1.42;;
47872;SDS011;73966;47.438;18.912;2024-02-04T10:41:36;1.40;;;1.30;;
47872;SDS011;73966;47.438;18.912;2024-02-04T10:44:16;1.48;;;1.33;;
47872;SDS011;73966;47.438;18.912;2024-02-04T10:46:45;1.60;;;1.50;;
47872;SDS011;73966;47.438;18.912;2024-02-04T10:49:17;1.40;;;1.15;;
47872;SDS011;73966;47.438;18.912;2024-02-04T10:51:49;1.30;;;1.25;;
47872;SDS011;73966;47.438;18.912;2024-02-04T10:54:21;1.35;;;1.25;;
47872;SDS011;73966;47.438;18.912;2024-02-04T10:56:55;1.83;;;1.67;;
47872;SDS011;73966;47.438;18.912;2024-02-04T10:59:28;1.85;;;1.65;;
47872;SDS011;73966;47.438;18.912;2024-02-04T11:01:59;2.97;;;1.73;;
47872;SDS011;73966;47.438;18.912;2024-02-04T11:04:33;3.53;;;1.60;;
47872;SDS011;73966;47.438;18.912;2024-02-04T11:07:05;2.05;;;1.55;;
47872;SDS011;73966;47.438;18.912;2024-02-04T11:09:35;1.40;;;1.30;;
47872;SDS011;73966;47.438;18.912;2024-02-04T11:12:06;2.60;;;1.20;;
47872;SDS011;73966;47.438;18.912;2024-02-04T11:14:41;1.85;;;1.30;;
47872;SDS011;73966;47.438;18.912;2024-02-04T11:17:24;1.42;;;1.33;;
47872;SDS011;73966;47.438;18.912;2024-02-04T11:20:12;1.58;;;1.48;;
47872;SDS011;73966;47.438;18.912;2024-02-04T11:22:58;1.30;;;1.20;;
47872;SDS011;73966;47.438;18.912;2024-02-04T11:25:42;1.40;;;1.30;;
47872;SDS011;73966;47.438;18.912;2024-02-04T11:28:15;6.35;;;1.40;;
47872;SDS011;73966;47.438;18.912;2024-02-04T11:30:45;1.35;;;1.25;;
47872;SDS011;73966;47.438;18.912;2024-02-04T11:33:17;1.83;;;1.40;;
47872;SDS011;73966;47.438;18.912;2024-02-04T11:35:58;1.95;;;1.58;;
47872;SDS011;73966;47.438;18.912;2024-02-04T11:38:33;1.40;;;1.30;;
47872;SDS011;73966;47.438;18.912;2024-02-04T11:41:21;1.20;;;1.05;;
47872;SDS011;73966;47.438;18.912;2024-02-04T11:43:52;1.20;;;1.10;;
47872;SDS011;73966;47.438;18.912;2024-02-04T11:46:28;0.88;;;0.88;;
47872;SDS011;73966;47.438;18.912;2024-02-04T11:49:01;1.52;;;1.23;;
47872;SDS011;73966;47.438;18.912;2024-02-04T11:51:31;1.30;;;1.20;;
47872;SDS011;73966;47.438;18.912;2024-02-04T11:54:02;1.27;;;0.90;;
47872;SDS011;73966;47.438;18.912;2024-02-04T11:56:33;0.75;;;0.75;;
47872;SDS011;73966;47.438;18.912;2024-02-04T11:59:04;0.75;;;0.75;;
47872;SDS011;73966;47.438;18.912;2024-02-04T12:01:35;1.33;;;0.93;;
47872;SDS011;73966;47.438;18.912;2024-02-04T12:04:11;1.60;;;1.20;;
47872;SDS011;73966;47.438;18.912;2024-02-04T12:06:41;1.73;;;1.20;;
47872;SDS011;73966;47.438;18.912;2024-02-04T12:09:15;1.15;;;0.90;;
47872;SDS011;73966;47.438;18.912;2024-02-04T12:11:50;1.87;;;1.65;;
47872;SDS011;73966;47.438;18.912;2024-02-04T12:14:20;1.25;;;1.15;;
47872;SDS011;73966;47.438;18.912;2024-02-04T12:16:50;1.42;;;1.30;;
47872;SDS011;73966;47.438;18.912;2024-02-04T12:19:19;1.52;;;1.17;;
47872;SDS011;73966;47.438;18.912;2024-02-04T12:21:50;1.37;;;1.27;;
47872;SDS011;73966;47.438;18.912;2024-02-04T12:24:21;1.30;;;1.20;;
47872;SDS011;73966;47.438;18.912;2024-02-04T12:26:50;1.42;;;1.25;;
47872;SDS011;73966;47.438;18.912;2024-02-04T12:29:19;1.23;;;1.12;;
47872;SDS011;73966;47.438;18.912;2024-02-04T12:31:57;1.52;;;1.42;;
47872;SDS011;73966;47.438;18.912;2024-02-04T12:34:27;1.37;;;1.27;;
47872;SDS011;73966;47.438;18.912;2024-02-04T12:37:00;1.37;;;1.27;;
47872;SDS011;73966;47.438;18.912;2024-02-04T12:39:31;1.40;;;1.30;;
47872;SDS011;73966;47.438;18.912;2024-02-04T12:42:01;4.28;;;1.25;;
47872;SDS011;73966;47.438;18.912;2024-02-04T12:44:30;1.45;;;1.25;;
47872;SDS011;73966;47.438;18.912;2024-02-04T12:47:02;1.25;;;1.17;;
47872;SDS011;73966;47.438;18.912;2024-02-04T12:49:32;1.67;;;1.40;;
47872;SDS011;73966;47.438;18.912;2024-02-04T12:52:05;1.50;;;1.37;;
47872;SDS011;73966;47.438;18.912;2024-02-04T12:54:43;1.77;;;1.27;;
47872;SDS011;73966;47.438;18.912;2024-02-04T12:57:21;0.85;;;0.85;;
47872;SDS011;73966;47.438;18.912;2024-02-04T12:59:51;1.42;;;1.33;;
47872;SDS011;73966;47.438;18.912;2024-02-04T13:02:23;1.23;;;1.10;;
47872;SDS011;73966;47.438;18.912;2024-02-04T13:04:58;2.00;;;1.50;;
47872;SDS011;73966;47.438;18.912;2024-02-04T13:07:28;1.55;;;1.45;;
47872;SDS011;73966;47.438;18.912;2024-02-04T13:09:58;1.75;;;1.37;;
47872;SDS011;73966;47.438;18.912;2024-02-04T13:12:32;1.12;;;1.00;;
47872;SDS011;73966;47.438;18.912;2024-02-04T13:15:03;1.00;;;1.00;;
47872;SDS011;73966;47.438;18.912;2024-02-04T13:17:33;1.08;;;0.98;;
47872;SDS011;73966;47.438;18.912;2024-02-04T13:20:03;1.20;;;1.10;;
47872;SDS011;73966;47.438;18.912;2024-02-04T13:22:36;1.37;;;1.20;;
47872;SDS011;73966;47.438;18.912;2024-02-04T13:25:07;1.15;;;1.05;;
47872;SDS011;73966;47.438;18.912;2024-02-04T13:27:36;1.45;;;1.30;;
47872;SDS011;73966;47.438;18.912;2024-02-04T13:30:07;2.03;;;1.10;;
47872;SDS011;73966;47.438;18.912;2024-02-04T13:32:41;2.33;;;1.62;;
47872;SDS011;73966;47.438;18.912;2024-02-04T13:35:11;2.62;;;1.33;;
47872;SDS011;73966;47.438;18.912;2024-02-04T13:37:47;1.48;;;1.37;;
47872;SDS011;73966;47.438;18.912;2024-02-04T13:40:21;1.67;;;1.37;;
47872;SDS011;73966;47.438;18.912;2024-02-04T13:42:52;4.47;;;2.95;;
47872;SDS011;73966;47.438;18.912;2024-02-04T13:45:21;3.62;;;2.30;;
47872;SDS011;73966;47.438;18.912;2024-02-04T13:47:51;3.20;;;2.30;;
47872;SDS011;73966;47.438;18.912;2024-02-04T13:50:21;1.60;;;1.27;;
47872;SDS011;73966;47.438;18.912;2024-02-04T13:52:50;0.90;;;0.90;;
47872;SDS011;73966;47.438;18.912;2024-02-04T13:55:22;1.42;;;1.33;;
47872;SDS011;73966;47.438;18.912;2024-02-04T13:57:51;1.75;;;1.40;;
47872;SDS011;73966;47.438;18.912;2024-02-04T14:00:21;1.15;;;1.10;;
47872;SDS011;73966;47.438;18.912;2024-02-04T14:02:50;1.92;;;1.60;;
47872;SDS011;73966;47.438;18.912;2024-02-04T14:05:20;1.12;;;1.02;;
47872;SDS011;73966;47.438;18.912;2024-02-04T14:07:52;3.42;;;1.23;;
47872;SDS011;73966;47.438;18.912;2024-02-04T14:10:27;1.62;;;1.10;;
47872;SDS011;73966;47.438;18.912;2024-02-04T14:12:56;1.00;;;1.00;;
47872;SDS011;73966;47.438;18.912;2024-02-04T14:15:25;1.00;;;0.88;;
47872;SDS011;73966;47.438;18.912;2024-02-04T14:17:54;2.03;;;1.00;;
47872;SDS011;73966;47.438;18.912;2024-02-04T14:20:24;1.05;;;0.90;;
47872;SDS011;73966;47.438;18.912;2024-02-04T14:22:54;1.85;;;1.10;;
47872;SDS011;73966;47.438;18.912;2024-02-04T14:25:24;1.10;;;1.00;;
47872;SDS011;73966;47.438;18.912;2024-02-04T14:27:59;1.40;;;1.20;;
47872;SDS011;73966;47.438;18.912;2024-02-04T14:30:34;3.42;;;1.25;;
47872;SDS011;73966;47.438;18.912;2024-02-04T14:33:04;2.42;;;1.23;;
47872;SDS011;73966;47.438;18.912;2024-02-04T14:35:34;1.52;;;1.40;;
47872;SDS011;73966;47.438;18.912;2024-02-04T14:38:04;0.95;;;0.90;;
47872;SDS011;73966;47.438;18.912;2024-02-04T14:40:33;1.77;;;1.23;;
47872;SDS011;73966;47.438;18.912;2024-02-04T14:43:04;1.27;;;1.00;;
47872;SDS011;73966;47.438;18.912;2024-02-04T14:45:33;1.10;;;0.93;;
47872;SDS011;73966;47.438;18.912;2024-02-04T14:48:06;1.35;;;1.20;;
47872;SDS011;73966;47.438;18.912;2024-02-04T14:50:38;0.90;;;0.90;;
47872;SDS011;73966;47.438;18.912;2024-02-04T14:53:07;0.85;;;0.85;;
47872;SDS011;73966;47.438;18.912;2024-02-04T14:55:36;1.17;;;0.90;;
47872;SDS011;73966;47.438;18.912;2024-02-04T14:58:07;0.90;;;0.90;;